Elon, NC

15:52 EDT le 23 octobre 2014 (GMT -0400)
Burlington-Alamance Regional | Change Station
CLOSE
Current Station
Aéroport
Location: Burlington,
Altitude: 617 ft
Stations météo à proximité

Alt. 617 ft 36.05 °N, 79.47 °W | Updated 58 minutes ago

Ciel dégagé
Ciel dégagé
69 ° F
Paraît 69 ° F
N
12
Vent Variable Vent de NO

Aujourd'hui
Haut(e) -- | Bas -- ° F
--% Risque de précip.
Hier
Haut(e) -- | Bas -- ° F
Precip. -- pouce
7:32 AM 6:31 PM
Lune descendante, 0% visible
Pression 29.95 pouce
Visibilité 10.0 Miles terrestres
Nuages Ciel dégagé
Point de rosée 41 ° F
Humidité 36%
Précipitations 0.00 pouce
Profondeur de la couche neigeuse Non disponible.
UV 4 sur 12
Pollen 2.50 sur 12
Ozone Bon
PM2.5 Bon
Flu Activity Sporadic
METAR KBUY 231854Z AUTO 31010KT 10SM CLR 21/05 A2996 RMK AO2 SLP142 T02060050

More Conditions Fewer Conditions

Pression 29.95 pouce
Visibilité 10.0 Miles terrestres
Nuages Ciel dégagé
Point de rosée 41 ° F
Humidité 36%
Précipitations 0.00 pouce
Profondeur de la couche neigeuse Non disponible.
UV 4 sur 12
Pollen 2.50 sur 12
Ozone Bon
PM2.5 Bon
Flu Activity Sporadic
METAR KBUY 231854Z AUTO 31010KT 10SM CLR 21/05 A2996 RMK AO2 SLP142 T02060050

More Conditions Fewer Conditions

10-Day Weather Forecast

Almanac

Astronomie

Oct. 23, 2014 Lever Coucher
Temps réel 07:32 EDT 18:31 EDT
Crépuscule civil 07:05 EDT 18:58 EDT
Crépuscule nautique 06:35 EDT 19:28 EDT
Crépuscule astronomique 06:06 EDT 19:57 EDT
Lune 07:10 EDT 18:32 EDT
Durée de lumière visible 11h 52m
Longueur du jour
10h 59m
Tomorrow will be 2m 8s shorter.
Lune descendante, 0% of the Moon is Illuminated
Aujourd'hui
Lune descendante
Oct 23
Nouveau
Oct 30
Premier quartier
Nov 6
Pleine lune
Nov 14
Dernier quartier

Extrêmes aujourd'hui

State Highs State Lows

Community

WunderPhotos

Upload Photos

1,764,350 Photos téléchargées !

WunderBlogs® & News

By Dr. Jeff Masters
Director of Meteorology, Weather Underground
By Kari Strenfel
Meteorologist, Weather Underground
By Christopher C. Burt
Weather Historian, Weather Underground
October 23, 2014
October 23, 2014
October 23, 2014

Nearby

Qualité de l'air

  Qualité de l'air Indice de la qualité de l'air Polluant
Hier Bon
OZONE
Hier Bon
PM2.5
Actuel Bon
OZONE
Actuel Bon
PM2.5
jeudi Bon
PM2.5
jeudi Bon
OZONE
vendredi Bon
OZONE
vendredi Bon
PM2.5
samedi Bon
PM2.5
samedi Bon
OZONE
dimanche Bon
PM2.5
dimanche Bon
OZONE

Épaisseur de neige

Station Depth Altitude
Pas de nouvelles chutes de neige

Activité sismique

Ville Distance Mag. Time & Date
No recent earthquake activity has been reported nearby.
Minimum magnitude displayed is 2.5.

Températures des eaux côtières

Lieu Température
Aucun rapport de station

Stations météo à proximité